Time;durP1;ratioP1;P1;durP2;ratioP2;P2;SDS_P1;SDS_P2;PMS_P1;PMS_P2;Temp;Humidity;BMP_temperature;BMP_pressure;BME280_temperature;BME280_humidity;BME280_pressure;Samples;Min_cycle;Max_cycle;Signal;HPM_P1;HPM_P2
2023/03/14 00:00:13;;;;;;;17.33;4.03;;;10.20;99.90;;;;;;6103491;23;20045;-86
2023/03/14 00:02:59;;;;;;;28.05;4.97;;;10.00;99.90;;;;;;6103915;23;20080;-88
2023/03/14 00:05:25;;;;;;;19.98;4.55;;;10.40;99.90;;;;;;6103366;23;20662;-87
2023/03/14 00:07:51;;;;;;;27.27;4.63;;;10.10;99.90;;;;;;6104534;23;20013;-86
2023/03/14 00:10:20;;;;;;;21.85;4.43;;;10.50;99.90;;;;;;6104083;23;20017;-86
2023/03/14 00:12:46;;;;;;;20.52;3.88;;;10.20;99.90;;;;;;6104045;23;20124;-87
2023/03/14 00:15:12;;;;;;;18.58;3.53;;;10.20;99.90;;;;;;6104398;23;20389;-87
2023/03/14 00:17:37;;;;;;;21.25;4.95;;;10.30;99.90;;;;;;6104300;23;20097;-87
2023/03/14 00:20:11;;;;;;;19.90;4.35;;;10.30;99.90;;;;;;6103691;23;20502;-86
2023/03/14 00:22:41;;;;;;;22.13;5.43;;;10.40;99.90;;;;;;6103784;23;20017;-84
2023/03/14 00:25:08;;;;;;;23.38;5.05;;;11.00;99.90;;;;;;6104496;23;20017;-88
2023/03/14 00:27:37;;;;;;;26.35;6.25;;;10.40;99.90;;;;;;6104008;23;20520;-88
2023/03/14 00:30:18;;;;;;;24.77;4.47;;;10.80;99.90;;;;;;6103943;23;20017;-87
2023/03/14 00:32:50;;;;;;;18.98;4.22;;;10.50;99.90;;;;;;6103142;23;20013;-87
2023/03/14 00:36:00;;;;;;;22.08;3.92;;;11.00;99.90;;;;;;6101376;23;20018;-87
2023/03/14 00:38:28;;;;;;;20.15;4.47;;;10.30;99.90;;;;;;6104207;23;20450;-86
2023/03/14 00:40:54;;;;;;;24.65;4.93;;;10.60;99.90;;;;;;6104471;23;20013;-87
2023/03/14 00:43:26;;;;;;;21.52;4.63;;;10.40;99.90;;;;;;6103865;23;20020;-87
2023/03/14 00:45:52;;;;;;;24.52;6.47;;;10.60;99.90;;;;;;6127959;23;20076;-87
2023/03/14 00:48:19;;;;;;;22.05;4.22;;;10.90;99.90;;;;;;6128399;23;20010;-87
2023/03/14 00:50:45;;;;;;;21.02;3.92;;;10.70;99.90;;;;;;6129214;23;20012;-87
2023/03/14 00:53:11;;;;;;;20.23;4.38;;;10.80;99.90;;;;;;6105978;23;20017;-87
2023/03/14 00:55:38;;;;;;;22.02;4.43;;;11.40;99.90;;;;;;6105259;23;20049;-87
2023/03/14 00:58:04;;;;;;;19.40;4.03;;;11.00;99.90;;;;;;6105883;23;20581;-87
2023/03/14 01:00:29;;;;;;;18.90;4.13;;;11.30;99.90;;;;;;6106341;23;20041;-86
2023/03/14 01:02:55;;;;;;;24.35;4.80;;;11.70;99.90;;;;;;6106038;23;20076;-87
2023/03/14 01:05:24;;;;;;;16.77;4.88;;;12.00;99.90;;;;;;6106466;23;20480;-87
2023/03/14 01:07:56;;;;;;;20.50;4.20;;;11.30;99.90;;;;;;6105796;23;20014;-86
2023/03/14 01:10:31;;;;;;;22.90;5.20;;;10.10;99.90;;;;;;6127274;23;20345;-87
2023/03/14 01:13:09;;;;;;;24.52;4.78;;;10.60;99.90;;;;;;6105505;23;20020;-87
2023/03/14 01:15:36;;;;;;;16.70;4.55;;;10.30;99.90;;;;;;6105436;23;20024;-86
2023/03/14 01:18:05;;;;;;;24.27;5.07;;;10.60;99.90;;;;;;6106126;23;20024;-86
2023/03/14 01:20:33;;;;;;;17.52;4.32;;;10.60;99.90;;;;;;6106816;23;20021;-86
2023/03/14 01:22:59;;;;;;;18.35;4.15;;;10.80;99.90;;;;;;6106684;23;20020;-87
2023/03/14 01:25:30;;;;;;;17.48;4.63;;;11.00;99.90;;;;;;6104939;23;20021;-87
2023/03/14 01:27:56;;;;;;;18.38;4.45;;;10.80;99.90;;;;;;6105836;23;20017;-87
2023/03/14 01:30:21;;;;;;;19.60;4.43;;;10.40;99.90;;;;;;6105960;23;20013;-86
2023/03/14 01:32:47;;;;;;;16.55;4.28;;;11.20;99.90;;;;;;6105231;23;20014;-86
2023/03/14 01:35:13;;;;;;;20.33;3.75;;;10.50;99.90;;;;;;6105870;23;20013;-87
2023/03/14 01:37:38;;;;;;;24.45;4.68;;;11.40;99.90;;;;;;6105921;23;20020;-86
2023/03/14 01:40:05;;;;;;;19.50;4.63;;;11.00;99.90;;;;;;6130423;23;20092;-87
2023/03/14 01:42:34;;;;;;;17.48;5.13;;;10.50;99.90;;;;;;6106319;23;20017;-87
2023/03/14 01:45:01;;;;;;;21.02;3.80;;;11.40;99.90;;;;;;6105681;23;20032;-87
2023/03/14 01:47:27;;;;;;;15.63;3.78;;;10.40;99.90;;;;;;6106150;23;20092;-87
2023/03/14 01:50:07;;;;;;;23.92;4.10;;;11.40;99.90;;;;;;6105964;23;20067;-87
2023/03/14 01:52:47;;;;;;;14.10;3.30;;;10.30;99.90;;;;;;6129624;23;20407;-87
2023/03/14 01:55:17;;;;;;;12.88;2.75;;;10.30;99.90;;;;;;6106099;23;20033;-88
2023/03/14 01:57:56;;;;;;;13.15;3.03;;;10.40;99.90;;;;;;6131527;23;20020;-87
2023/03/14 02:00:24;;;;;;;17.10;3.83;;;10.30;99.90;;;;;;6130566;23;20064;-87
2023/03/14 02:02:55;;;;;;;14.43;2.65;;;10.30;99.90;;;;;;6104685;23;20477;-89
2023/03/14 02:05:32;;;;;;;13.63;2.42;;;10.30;99.90;;;;;;6104977;23;20100;-87
2023/03/14 02:08:01;;;;;;;13.40;2.40;;;10.30;99.90;;;;;;6105474;23;20014;-86
2023/03/14 02:10:32;;;;;;;20.23;3.28;;;10.30;99.90;;;;;;6129783;23;20104;-88
2023/03/14 02:13:07;;;;;;;16.50;2.55;;;10.40;99.90;;;;;;6104662;23;20048;-88
2023/03/14 02:15:33;;;;;;;12.50;2.67;;;10.40;99.90;;;;;;6105383;23;20080;-88
2023/03/14 02:18:01;;;;;;;11.10;2.45;;;11.00;99.90;;;;;;6105355;23;20014;-87
2023/03/14 02:20:29;;;;;;;11.40;2.22;;;10.30;99.90;;;;;;6129869;23;20006;-88
2023/03/14 02:22:55;;;;;;;11.48;2.55;;;10.10;99.90;;;;;;6105173;23;20108;-88
2023/03/14 02:25:33;;;;;;;11.95;2.45;;;10.30;99.90;;;;;;6105448;23;20036;-87
2023/03/14 02:28:00;;;;;;;15.95;3.10;;;10.20;99.90;;;;;;6104818;23;20097;-87
2023/03/14 02:30:33;;;;;;;14.13;3.03;;;11.10;99.90;;;;;;6104272;23;20060;-87
2023/03/14 02:33:03;;;;;;;9.35;2.28;;;10.20;99.90;;;;;;6104260;23;20029;-87
2023/03/14 02:35:47;;;;;;;14.05;3.90;;;10.10;99.90;;;;;;6104999;23;20020;-87
2023/03/14 02:38:24;;;;;;;17.60;3.10;;;10.20;99.90;;;;;;6104026;23;20014;-88
2023/03/14 02:40:53;;;;;;;14.88;3.17;;;10.30;99.90;;;;;;6106056;23;20028;-86
2023/03/14 02:43:19;;;;;;;15.55;3.80;;;10.30;99.90;;;;;;6105257;23;20009;-87
2023/03/14 02:45:47;;;;;;;18.38;3.80;;;9.90;99.90;;;;;;6129550;23;20760;-86
2023/03/14 02:48:28;;;;;;;14.02;3.72;;;10.00;99.90;;;;;;6105268;23;20047;-86
2023/03/14 02:50:56;;;;;;;17.52;4.35;;;10.20;99.90;;;;;;6105100;23;20081;-87
2023/03/14 02:53:26;;;;;;;16.55;3.70;;;9.90;99.90;;;;;;6105128;23;20037;-89
2023/03/14 02:55:52;;;;;;;16.83;4.55;;;9.90;99.90;;;;;;6105020;23;20119;-87
2023/03/14 02:58:19;;;;;;;12.30;3.22;;;9.90;99.90;;;;;;6105180;23;20433;-87
2023/03/14 03:00:45;;;;;;;15.52;4.72;;;9.90;99.90;;;;;;6105083;23;20009;-87
2023/03/14 03:03:10;;;;;;;13.65;3.00;;;9.80;99.90;;;;;;6104767;23;20505;-86
2023/03/14 03:05:36;;;;;;;14.95;3.60;;;9.80;99.90;;;;;;6104747;23;20025;-87
2023/03/14 03:08:04;;;;;;;14.32;3.10;;;9.70;99.90;;;;;;6129481;23;20092;-89
2023/03/14 03:10:31;;;;;;;12.02;2.97;;;9.70;99.90;;;;;;6104551;23;20005;-87
2023/03/14 03:12:57;;;;;;;11.73;3.28;;;9.80;99.90;;;;;;6104621;23;20053;-87
2023/03/14 03:15:23;;;;;;;11.80;3.25;;;9.70;99.90;;;;;;6104659;23;20017;-87
2023/03/14 03:17:49;;;;;;;11.25;3.55;;;9.50;99.90;;;;;;6129178;23;20014;-86
2023/03/14 03:20:15;;;;;;;10.07;3.20;;;9.70;99.90;;;;;;6104398;23;20108;-87
2023/03/14 03:22:40;;;;;;;11.43;2.60;;;9.60;99.90;;;;;;6128765;23;20013;-87
2023/03/14 03:25:07;;;;;;;10.13;3.20;;;9.60;99.90;;;;;;6104465;23;20020;-87
2023/03/14 03:27:34;;;;;;;10.35;2.95;;;9.60;99.90;;;;;;6104710;23;20014;-87
2023/03/14 03:30:00;;;;;;;10.80;3.42;;;9.50;99.90;;;;;;6128553;23;20047;-86
2023/03/14 03:32:26;;;;;;;15.25;3.67;;;9.40;99.90;;;;;;6128887;23;20013;-87
2023/03/14 03:34:52;;;;;;;9.75;3.53;;;9.50;99.90;;;;;;6129428;23;20010;-87
2023/03/14 03:37:18;;;;;;;9.35;3.03;;;10.20;99.90;;;;;;6104677;23;20060;-87
2023/03/14 03:39:46;;;;;;;10.68;3.40;;;9.90;99.90;;;;;;6104751;23;20056;-86
2023/03/14 03:42:12;;;;;;;9.93;3.20;;;9.70;99.90;;;;;;6128760;23;20017;-86
2023/03/14 03:44:37;;;;;;;7.38;3.00;;;9.40;99.90;;;;;;6104482;23;20473;-87
2023/03/14 03:47:04;;;;;;;12.25;4.30;;;9.40;99.90;;;;;;6104135;23;20014;-87
2023/03/14 03:49:31;;;;;;;11.90;3.90;;;9.80;99.90;;;;;;6129027;23;20009;-87
2023/03/14 03:51:57;;;;;;;14.50;3.45;;;9.70;99.90;;;;;;6104413;23;20101;-87
2023/03/14 03:54:22;;;;;;;13.05;3.53;;;10.40;99.90;;;;;;6104988;23;20446;-87
2023/03/14 03:56:48;;;;;;;16.77;4.00;;;9.40;99.90;;;;;;6104627;23;20009;-87
2023/03/14 03:59:14;;;;;;;12.75;4.78;;;9.90;99.90;;;;;;6104692;23;20096;-89
2023/03/14 04:01:39;;;;;;;14.93;4.38;;;9.40;99.90;;;;;;6128913;23;20068;-86
2023/03/14 04:04:08;;;;;;;9.98;5.05;;;9.30;99.90;;;;;;6104344;23;20017;-87
2023/03/14 04:06:34;;;;;;;14.82;4.30;;;9.30;99.90;;;;;;6104362;23;20013;-88
2023/03/14 04:08:59;;;;;;;13.10;3.70;;;9.80;99.90;;;;;;6104742;23;20450;-86
2023/03/14 04:11:28;;;;;;;20.27;4.85;;;9.30;99.90;;;;;;6104302;23;20350;-87
2023/03/14 04:13:54;;;;;;;14.48;4.78;;;8.80;99.90;;;;;;6104328;23;20787;-86
2023/03/14 04:16:22;;;;;;;13.68;3.78;;;9.20;99.90;;;;;;6104440;23;20041;-86
2023/03/14 04:18:51;;;;;;;13.48;3.95;;;9.20;99.90;;;;;;6103798;23;20089;-87
2023/03/14 04:21:19;;;;;;;10.88;3.55;;;9.10;99.90;;;;;;6104056;23;20104;-87
2023/03/14 04:23:45;;;;;;;9.93;4.00;;;9.10;99.90;;;;;;6104137;23;20229;-86
2023/03/14 04:26:18;;;;;;;10.77;3.35;;;9.90;99.90;;;;;;6104061;23;20013;-87
2023/03/14 04:28:52;;;;;;;16.75;3.80;;;9.70;99.90;;;;;;6104694;23;20020;-86
2023/03/14 04:31:20;;;;;;;9.18;2.72;;;9.40;99.90;;;;;;6103836;23;20028;-87
2023/03/14 04:33:46;;;;;;;10.82;3.67;;;9.10;99.90;;;;;;6128585;23;20096;-86
2023/03/14 04:36:13;;;;;;;10.23;2.58;;;10.10;99.90;;;;;;6103887;23;20014;-86
2023/03/14 04:38:38;;;;;;;10.55;3.55;;;9.20;99.90;;;;;;6104255;23;20013;-86
2023/03/14 04:41:04;;;;;;;10.48;3.20;;;9.60;99.90;;;;;;6128089;23;20017;-86
2023/03/14 04:43:30;;;;;;;15.75;3.20;;;9.10;99.90;;;;;;6128577;23;20013;-87
2023/03/14 04:46:00;;;;;;;16.55;4.32;;;9.40;99.90;;;;;;6128404;23;20035;-86
2023/03/14 04:48:29;;;;;;;18.73;4.82;;;9.20;99.90;;;;;;6104521;23;20013;-86
2023/03/14 04:50:55;;;;;;;10.85;3.10;;;9.10;99.90;;;;;;6104369;23;20395;-87
2023/03/14 04:53:21;;;;;;;10.65;4.90;;;9.70;99.90;;;;;;6104384;23;20457;-86
2023/03/14 04:55:52;;;;;;;11.18;3.75;;;9.10;99.90;;;;;;6104380;23;20064;-86
2023/03/14 04:58:18;;;;;;;13.60;3.45;;;9.20;99.90;;;;;;6104297;23;20009;-86
2023/03/14 05:00:44;;;;;;;13.45;3.50;;;10.10;99.90;;;;;;6104215;23;20442;-88
2023/03/14 05:03:17;;;;;;;13.75;4.38;;;9.90;99.90;;;;;;6104249;23;20023;-88
2023/03/14 05:05:49;;;;;;;15.80;4.10;;;9.50;99.90;;;;;;6105044;23;20014;-88
2023/03/14 05:08:17;;;;;;;10.73;3.75;;;9.10;99.90;;;;;;6103150;23;20033;-86
2023/03/14 05:11:10;;;;;;;13.23;3.70;;;9.10;99.90;;;;;;6127730;23;20017;-88
2023/03/14 05:13:47;;;;;;;14.30;4.10;;;9.50;99.90;;;;;;6103561;23;20005;-86
2023/03/14 05:16:42;;;;;;;10.63;3.78;;;9.10;99.90;;;;;;6104240;23;20327;-88
2023/03/14 05:19:17;;;;;;;15.15;3.88;;;9.10;99.90;;;;;;6110678;23;20014;-88
2023/03/14 05:21:42;;;;;;;12.90;4.43;;;9.50;99.90;;;;;;6101896;23;20025;-86
2023/03/14 05:24:08;;;;;;;11.63;3.95;;;9.60;99.90;;;;;;6102614;23;20615;-85
2023/03/14 05:26:33;;;;;;;10.85;3.30;;;9.20;99.90;;;;;;6102842;23;20021;-84
2023/03/14 05:28:59;;;;;;;12.75;3.88;;;9.20;99.90;;;;;;6128786;23;20013;-88
2023/03/14 05:31:25;;;;;;;17.10;4.53;;;9.20;99.90;;;;;;6150949;23;20422;-88
2023/03/14 05:33:50;;;;;;;15.43;5.07;;;9.30;99.90;;;;;;6125137;23;20064;-87
2023/03/14 05:36:16;;;;;;;17.73;5.05;;;9.40;99.90;;;;;;6126840;23;20018;-85
2023/03/14 05:38:41;;;;;;;18.17;6.03;;;9.80;99.90;;;;;;6128864;23;20450;-87
2023/03/14 05:41:07;;;;;;;12.13;4.95;;;9.20;99.90;;;;;;6128813;23;20021;-87
2023/03/14 05:43:33;;;;;;;16.67;5.47;;;9.20;99.90;;;;;;6102955;23;20064;-85
2023/03/14 05:46:11;;;;;;;17.08;5.47;;;9.60;99.90;;;;;;6103676;23;20013;-85
2023/03/14 05:49:13;;;;;;;;;;;;;;;;;;;;;
2023/03/14 05:51:48;;;;;;;17.08;5.57;;;9.90;99.90;;;;;;6152197;23;20018;-86
2023/03/14 05:54:14;;;;;;;17.65;6.47;;;9.30;99.90;;;;;;6128406;23;20028;-85
2023/03/14 05:56:42;;;;;;;14.52;4.88;;;9.10;99.90;;;;;;6127097;23;20013;-86
2023/03/14 05:59:33;;;;;;;16.55;6.15;;;9.10;99.90;;;;;;6103235;23;20014;-87
2023/03/14 06:02:12;;;;;;;10.63;5.32;;;8.80;99.90;;;;;;6101641;23;20056;-86
2023/03/14 06:04:41;;;;;;;13.20;5.65;;;9.00;99.90;;;;;;6103530;23;20048;-87
2023/03/14 06:07:12;;;;;;;11.82;4.65;;;9.00;99.90;;;;;;6104437;23;20061;-86
2023/03/14 06:09:41;;;;;;;11.00;4.55;;;9.00;99.90;;;;;;6128503;23;20476;-85
2023/03/14 06:12:06;;;;;;;10.52;4.85;;;8.90;99.90;;;;;;6104972;23;20069;-85
2023/03/14 06:14:32;;;;;;;9.95;4.28;;;9.00;99.90;;;;;;6129695;23;20509;-86
2023/03/14 06:16:58;;;;;;;7.95;4.15;;;10.30;99.90;;;;;;6131151;23;20014;-84
2023/03/14 06:19:25;;;;;;;10.68;4.88;;;9.00;99.90;;;;;;6127076;23;20013;-86
2023/03/14 06:21:51;;;;;;;13.05;4.80;;;9.00;99.90;;;;;;6101520;23;20022;-85
2023/03/14 06:24:17;;;;;;;8.90;4.32;;;9.60;99.90;;;;;;6124175;23;20151;-86
2023/03/14 06:26:43;;;;;;;9.70;3.88;;;9.00;99.90;;;;;;6123865;23;20020;-85
2023/03/14 06:29:09;;;;;;;11.65;4.45;;;9.00;99.90;;;;;;6151309;23;20021;-84
2023/03/14 06:31:34;;;;;;;9.27;3.78;;;9.00;99.90;;;;;;6126847;23;20033;-86
2023/03/14 06:34:00;;;;;;;7.00;3.00;;;8.90;99.90;;;;;;6127404;23;20602;-88
2023/03/14 06:36:26;;;;;;;5.25;2.15;;;9.00;99.90;;;;;;6125663;23;20017;-84
2023/03/14 06:38:51;;;;;;;6.97;2.60;;;9.00;99.90;;;;;;6150697;23;20040;-84
2023/03/14 06:41:17;;;;;;;5.82;2.40;;;9.00;99.90;;;;;;6123545;23;20042;-84
2023/03/14 06:43:43;;;;;;;5.72;2.83;;;9.00;99.90;;;;;;6125040;23;20069;-83
2023/03/14 06:46:08;;;;;;;8.93;3.10;;;9.00;99.90;;;;;;6125522;23;20049;-84
2023/03/14 06:48:37;;;;;;;12.05;3.35;;;8.90;99.90;;;;;;6147881;23;20049;-84
2023/03/14 06:51:03;;;;;;;12.50;3.67;;;9.00;99.90;;;;;;6148937;23;20025;-85
2023/03/14 06:53:31;;;;;;;12.18;4.10;;;9.00;99.90;;;;;;6126239;23;20018;-86
2023/03/14 06:56:12;;;;;;;11.43;3.67;;;9.70;99.90;;;;;;6097907;23;20018;-86
2023/03/14 06:58:59;;;;;;;9.82;2.63;;;9.00;99.90;;;;;;6103414;23;20461;-87
2023/03/14 07:01:59;;;;;;;6.03;2.28;;;8.90;99.90;;;;;;6104206;23;20073;-85
2023/03/14 07:04:52;;;;;;;4.65;2.20;;;8.90;99.90;;;;;;6150985;23;20056;-86
2023/03/14 18:13:47;;;;;;;12.20;1.27;;;4.60;99.90;;;;;;6152197;23;20024;-84
2023/03/14 18:16:13;;;;;;;6.75;0.98;;;4.60;99.90;;;;;;6104819;23;20092;-87
2023/03/14 18:19:14;;;;;;;12.07;2.05;;;4.70;99.90;;;;;;6105995;23;20021;-88
2023/03/14 18:21:40;;;;;;;8.63;1.35;;;4.50;99.90;;;;;;6120658;23;20010;-85
2023/03/14 18:24:06;;;;;;;5.90;1.30;;;4.30;99.90;;;;;;6127828;23;20064;-87
2023/03/14 18:26:32;;;;;;;6.97;1.77;;;4.30;99.90;;;;;;6104424;23;20013;-89
2023/03/14 18:28:58;;;;;;;10.85;2.15;;;4.10;99.90;;;;;;6129055;23;20011;-89
2023/03/14 18:31:24;;;;;;;8.40;2.05;;;4.00;99.90;;;;;;6128058;23;20402;-88
2023/03/14 18:33:54;;;;;;;7.82;1.48;;;4.00;99.90;;;;;;6128392;23;20018;-88
2023/03/14 18:36:19;;;;;;;8.88;1.08;;;4.00;99.90;;;;;;6104572;23;20029;-88
2023/03/14 18:38:47;;;;;;;8.98;1.17;;;3.90;99.90;;;;;;6103438;23;20017;-88
2023/03/14 18:41:15;;;;;;;9.13;1.10;;;3.80;99.90;;;;;;6103123;23;20052;-88
2023/03/14 18:43:42;;;;;;;6.00;1.20;;;3.80;99.90;;;;;;6103619;23;20017;-88
2023/03/14 18:46:09;;;;;;;9.75;0.80;;;4.70;99.90;;;;;;6104478;23;20076;-87
2023/03/14 18:48:40;;;;;;;8.13;2.42;;;3.70;99.90;;;;;;6102691;23;20100;-88
2023/03/14 18:51:11;;;;;;;5.68;0.95;;;5.20;99.90;;;;;;6103594;23;20092;-87
2023/03/14 18:53:37;;;;;;;11.93;1.90;;;3.60;99.90;;;;;;6126430;23;20063;-87
2023/03/14 19:33:28;;;;;;;10.65;1.00;;;3.20;99.90;;;;;;6061934;23;20119;-91
2023/03/14 19:39:34;;;;;;;10.80;1.50;;;3.10;99.90;;;;;;6060300;23;20030;-85
2023/03/14 19:42:00;;;;;;;10.55;2.10;;;3.00;99.90;;;;;;6037754;23;20010;-86
2023/03/14 19:44:26;;;;;;;14.18;2.05;;;2.90;99.90;;;;;;6037177;23;20018;-86
2023/03/14 19:46:52;;;;;;;11.23;1.27;;;2.90;99.90;;;;;;6037663;23;20093;-85
2023/03/14 19:49:18;;;;;;;7.35;0.90;;;2.90;99.90;;;;;;6037668;23;20046;-84
2023/03/14 19:51:52;;;;;;;9.00;1.98;;;2.90;99.90;;;;;;6151251;23;20024;-89
2023/03/14 19:54:56;;;;;;;8.70;1.23;;;2.90;99.90;;;;;;6103937;23;20044;-89
2023/03/14 19:57:43;;;;;;;7.28;1.08;;;3.00;99.90;;;;;;6126760;23;20040;-87
2023/03/14 20:00:15;;;;;;;8.70;1.23;;;2.90;99.90;;;;;;6100118;23;20450;-86
2023/03/14 20:02:51;;;;;;;6.18;0.90;;;2.90;99.90;;;;;;6102555;23;20049;-88
2023/03/14 20:05:22;;;;;;;9.60;1.42;;;2.90;99.90;;;;;;6101309;23;20512;-87
2023/03/14 20:07:48;;;;;;;18.35;1.92;;;2.90;99.90;;;;;;6103058;23;20032;-86
2023/03/14 20:10:16;;;;;;;10.50;1.30;;;2.80;99.90;;;;;;6105772;23;20033;-84
2023/03/14 20:12:45;;;;;;;12.82;1.90;;;2.80;99.90;;;;;;6129663;23;20068;-84
2023/03/14 20:15:16;;;;;;;16.17;1.73;;;2.70;99.90;;;;;;6129337;23;20557;-86
2023/03/14 20:17:47;;;;;;;9.88;1.10;;;2.70;99.90;;;;;;6127681;23;20438;-84
2023/03/14 20:20:13;;;;;;;16.90;1.63;;;2.70;99.90;;;;;;6103584;23;20441;-85
2023/03/14 20:22:39;;;;;;;8.00;1.30;;;3.30;99.90;;;;;;6126542;23;20067;-85
2023/03/14 20:25:08;;;;;;;7.88;1.20;;;2.70;99.90;;;;;;6101852;23;20024;-86
2023/03/14 20:27:34;;;;;;;7.20;1.42;;;2.70;99.90;;;;;;6101020;23;20556;-85
2023/03/14 20:30:06;;;;;;;10.10;1.58;;;2.70;99.90;;;;;;6125601;23;20630;-85
2023/03/14 20:32:33;;;;;;;10.20;1.40;;;3.30;99.90;;;;;;6126920;23;20378;-86
2023/03/14 20:35:00;;;;;;;7.20;1.13;;;2.60;99.90;;;;;;6127199;23;20016;-85
2023/03/14 20:37:26;;;;;;;9.75;1.33;;;2.50;99.90;;;;;;6126461;23;20020;-85
2023/03/14 20:39:52;;;;;;;8.95;1.30;;;2.50;99.90;;;;;;6126960;23;20449;-86
2023/03/14 20:42:18;;;;;;;8.32;1.30;;;2.50;99.90;;;;;;6128887;23;20140;-86
2023/03/14 20:44:44;;;;;;;11.90;1.33;;;2.60;99.90;;;;;;6105208;23;20092;-84
2023/03/14 20:47:11;;;;;;;16.27;1.95;;;2.60;99.90;;;;;;6127655;23;20032;-85
2023/03/14 20:49:39;;;;;;;10.55;1.58;;;2.60;99.90;;;;;;6104147;23;20052;-85
2023/03/14 20:52:04;;;;;;;17.35;2.20;;;2.60;99.90;;;;;;6104234;23;20017;-85
2023/03/14 20:54:31;;;;;;;13.10;1.90;;;2.60;99.90;;;;;;6129589;23;20049;-85
2023/03/14 20:56:57;;;;;;;13.18;1.73;;;3.50;99.90;;;;;;6103502;23;20009;-86
2023/03/14 20:59:23;;;;;;;9.85;1.20;;;3.40;99.90;;;;;;6127002;23;20058;-85
2023/03/14 21:01:50;;;;;;;8.20;1.25;;;2.90;99.90;;;;;;6126300;23;20024;-82
2023/03/14 21:04:19;;;;;;;11.75;1.77;;;2.70;99.90;;;;;;6128904;23;20049;-85
2023/03/14 21:06:45;;;;;;;10.70;1.55;;;2.70;99.90;;;;;;6103417;23;20013;-86
2023/03/14 21:09:13;;;;;;;9.27;2.15;;;2.70;99.90;;;;;;6105454;23;20005;-86
2023/03/14 21:11:45;;;;;;;8.35;1.10;;;2.70;99.90;;;;;;6105630;23;20006;-86
2023/03/14 21:14:11;;;;;;;13.43;2.05;;;2.70;99.90;;;;;;6106304;23;20506;-85
2023/03/14 21:16:37;;;;;;;6.90;0.88;;;2.70;99.90;;;;;;6106531;23;20037;-86
2023/03/14 21:19:02;;;;;;;8.50;1.70;;;2.70;99.90;;;;;;6130785;23;20020;-84
2023/03/14 21:21:28;;;;;;;12.60;1.95;;;2.70;99.90;;;;;;6106563;23;20084;-86
2023/03/14 21:23:53;;;;;;;13.30;1.52;;;2.60;99.90;;;;;;6151596;23;20088;-85
2023/03/14 21:26:22;;;;;;;8.65;0.90;;;3.90;99.90;;;;;;6126654;23;20032;-85
2023/03/14 21:28:48;;;;;;;17.42;1.60;;;2.70;99.90;;;;;;6150475;23;20445;-85
2023/03/14 21:31:13;;;;;;;7.03;1.88;;;2.80;99.90;;;;;;6125551;23;20108;-85
2023/03/14 21:33:39;;;;;;;13.23;1.20;;;2.80;99.90;;;;;;6152956;23;20014;-86
2023/03/14 21:36:05;;;;;;;11.73;1.65;;;2.80;99.90;;;;;;6125051;23;20373;-85
2023/03/14 21:38:31;;;;;;;7.63;1.30;;;2.90;99.90;;;;;;6100438;23;20018;-85
2023/03/14 21:40:57;;;;;;;7.32;1.30;;;2.90;99.90;;;;;;6151169;23;20016;-85
2023/03/14 21:43:24;;;;;;;6.78;1.08;;;3.00;99.90;;;;;;6125641;23;20017;-86
2023/03/14 21:45:50;;;;;;;6.45;1.65;;;2.90;99.90;;;;;;6150659;23;20010;-85
2023/03/14 21:48:16;;;;;;;6.85;1.00;;;2.90;99.90;;;;;;6101754;23;20092;-85
2023/03/14 21:50:43;;;;;;;12.18;1.38;;;3.00;99.90;;;;;;6151735;23;20085;-85
2023/03/14 21:53:08;;;;;;;9.13;1.45;;;3.00;99.90;;;;;;6125393;23;20022;-85
2023/03/14 21:55:34;;;;;;;5.43;1.20;;;3.00;99.90;;;;;;6125747;23;20441;-85
2023/03/14 21:58:01;;;;;;;7.13;1.35;;;3.00;99.90;;;;;;6124638;23;20091;-86
2023/03/14 22:00:30;;;;;;;7.45;0.90;;;3.00;99.90;;;;;;6149939;23;20028;-85
2023/03/14 22:02:55;;;;;;;7.97;1.58;;;3.00;99.90;;;;;;6125200;23;20437;-85
2023/03/14 22:05:21;;;;;;;14.93;2.00;;;3.00;99.90;;;;;;6125894;23;20068;-85
2023/03/14 22:07:47;;;;;;;8.68;1.13;;;3.00;99.90;;;;;;6152219;23;20122;-85
2023/03/14 22:10:14;;;;;;;8.38;1.05;;;3.10;99.90;;;;;;6099901;23;20204;-85
2023/03/14 22:12:40;;;;;;;10.27;1.95;;;3.00;99.90;;;;;;6150615;23;20049;-85
2023/03/14 22:15:07;;;;;;;8.85;1.02;;;3.10;99.90;;;;;;6150146;23;20063;-85
2023/03/14 22:17:33;;;;;;;6.80;0.75;;;3.10;99.90;;;;;;6124624;23;20047;-85
2023/03/14 22:19:58;;;;;;;6.60;0.90;;;3.10;99.90;;;;;;6150085;23;20021;-85
2023/03/14 22:22:27;;;;;;;5.95;0.80;;;3.10;99.90;;;;;;6150404;23;20010;-86
2023/03/14 22:24:53;;;;;;;7.28;1.02;;;3.00;99.90;;;;;;6125523;23;20504;-86
2023/03/14 22:27:19;;;;;;;4.28;0.65;;;3.00;99.90;;;;;;6151363;23;20010;-85
2023/03/14 22:29:45;;;;;;;7.28;1.10;;;3.00;99.90;;;;;;6150525;23;20021;-86
2023/03/14 22:32:11;;;;;;;13.00;1.52;;;3.00;99.90;;;;;;6124541;23;20028;-85
2023/03/14 22:34:36;;;;;;;9.85;1.30;;;3.00;99.90;;;;;;6124563;23;20091;-85
2023/03/14 22:37:04;;;;;;;8.68;1.10;;;3.00;99.90;;;;;;6150925;23;20013;-85
2023/03/14 22:39:31;;;;;;;10.38;1.20;;;3.00;99.90;;;;;;6151379;23;20338;-85
2023/03/14 22:41:57;;;;;;;10.95;1.33;;;3.10;99.90;;;;;;6150573;23;20045;-85
2023/03/14 22:44:23;;;;;;;7.30;1.33;;;3.10;99.90;;;;;;6151245;23;20501;-85
2023/03/14 22:46:49;;;;;;;7.63;2.65;;;3.00;99.90;;;;;;6125141;23;20021;-85
2023/03/14 22:49:14;;;;;;;7.40;1.33;;;3.00;99.90;;;;;;6125250;23;20024;-85
2023/03/14 22:51:40;;;;;;;8.20;2.00;;;3.80;99.90;;;;;;6151755;23;20048;-85
2023/03/14 22:54:06;;;;;;;7.40;1.30;;;3.00;99.90;;;;;;6151607;23;20024;-85
2023/03/14 22:56:32;;;;;;;15.00;2.03;;;2.90;99.90;;;;;;6152321;23;20009;-85
2023/03/14 22:58:58;;;;;;;10.85;2.08;;;2.90;99.90;;;;;;6123776;23;20445;-85
2023/03/14 23:01:24;;;;;;;7.68;2.13;;;2.90;99.90;;;;;;6152232;23;20024;-88
2023/03/14 23:03:50;;;;;;;6.68;1.30;;;2.90;99.90;;;;;;6150947;23;20088;-88
2023/03/14 23:06:16;;;;;;;10.75;2.20;;;2.80;99.90;;;;;;6151422;23;20037;-88
2023/03/14 23:08:42;;;;;;;13.50;2.00;;;2.90;99.90;;;;;;6124867;23;20018;-88
2023/03/14 23:11:12;;;;;;;8.07;1.20;;;2.90;99.90;;;;;;6126360;23;20009;-87
2023/03/14 23:13:38;;;;;;;11.45;1.83;;;2.80;99.90;;;;;;6151755;23;20035;-88
2023/03/14 23:16:06;;;;;;;9.93;1.52;;;2.80;99.90;;;;;;6152107;23;20009;-87
2023/03/14 23:18:32;;;;;;;12.85;2.90;;;2.80;99.90;;;;;;6151994;23;20020;-88
2023/03/14 23:21:08;;;;;;;10.82;1.67;;;2.80;99.90;;;;;;6151814;23;20342;-88
2023/03/14 23:23:34;;;;;;;12.73;1.85;;;2.80;99.90;;;;;;6100260;23;20025;-88
2023/03/14 23:26:08;;;;;;;7.35;1.35;;;2.80;99.90;;;;;;6152107;23;20009;-88
2023/03/14 23:28:34;;;;;;;7.13;1.65;;;2.80;99.90;;;;;;6125770;23;20013;-87
2023/03/14 23:31:00;;;;;;;11.45;1.35;;;2.70;99.90;;;;;;6150416;23;20009;-87
2023/03/14 23:33:27;;;;;;;9.02;1.30;;;2.80;99.90;;;;;;6099886;23;20025;-87
2023/03/14 23:35:53;;;;;;;8.85;2.13;;;2.80;99.90;;;;;;6125050;23;20010;-88
2023/03/14 23:38:20;;;;;;;9.60;1.02;;;2.80;99.90;;;;;;6124740;23;20017;-88
2023/03/14 23:40:46;;;;;;;9.93;1.10;;;2.80;99.90;;;;;;6149923;23;20069;-86
2023/03/14 23:43:12;;;;;;;7.28;1.17;;;2.70;99.90;;;;;;6125480;23;20013;-88
2023/03/14 23:45:37;;;;;;;10.20;1.00;;;2.80;99.90;;;;;;6124460;23;20147;-88
2023/03/14 23:48:04;;;;;;;9.65;1.13;;;2.80;99.90;;;;;;6150832;23;20013;-88
2023/03/14 23:50:29;;;;;;;5.97;1.48;;;2.70;99.90;;;;;;6101212;23;20083;-88
2023/03/14 23:52:55;;;;;;;9.93;1.45;;;2.80;99.90;;;;;;6151203;23;20796;-88
2023/03/14 23:55:20;;;;;;;8.48;2.72;;;2.80;99.90;;;;;;6125285;23;20084;-87
2023/03/14 23:57:46;;;;;;;7.55;1.30;;;2.80;99.90;;;;;;6153751;23;20387;-85
